Time;durP1;ratioP1;P1;durP2;ratioP2;P2;SDS_P1;SDS_P2;PMS_P1;PMS_P2;Temp;Humidity;BMP_temperature;BMP_pressure;BME280_temperature;BME280_humidity;BME280_pressure;Samples;Min_cycle;Max_cycle;Signal;HPM_P1;HPM_P2
2023/12/03 07:33:12;;;;;;;18.60;8.82;;;;;;;-8.80;90.35;98851.44;2083802;28;21239;-65
2023/12/03 07:34:13;;;;;;;18.70;9.98;;;;;;;-146.81;100.00;56657.75;2081613;28;20671;-66
2023/12/03 07:35:15;;;;;;;17.90;9.35;;;;;;;-146.81;100.00;56657.75;2073283;28;20195;-65
2023/12/03 07:36:17;;;;;;;19.38;10.52;;;;;;;-146.81;100.00;56657.75;2081662;28;20214;-65
2023/12/03 07:37:18;;;;;;;18.35;9.00;;;;;;;-6.91;82.81;98810.13;2080912;28;20193;-65
2023/12/03 07:38:20;;;;;;;15.95;8.70;;;;;;;-6.32;80.96;98849.69;2078037;28;20847;-65
2023/12/03 07:39:23;;;;;;;15.35;8.00;;;;;;;-5.86;79.97;98857.78;2082794;28;20277;-66
2023/12/03 07:40:25;;;;;;;15.82;8.07;;;;;;;-5.74;78.82;98856.38;2081777;28;20574;-66
2023/12/03 07:41:27;;;;;;;15.73;7.93;;;;;;;-5.38;78.08;98854.63;2078270;28;20288;-66
2023/12/03 07:42:28;;;;;;;14.68;7.88;;;;;;;-4.96;77.08;98852.94;2078657;28;20243;-64
2023/12/03 07:43:30;;;;;;;17.17;8.43;;;;;;;-4.98;76.25;98816.53;2079838;28;20329;-63
2023/12/03 07:44:32;;;;;;;14.45;8.93;;;;;;;-4.50;75.49;98853.03;2081483;28;20836;-64
2023/12/03 07:45:34;;;;;;;16.88;7.60;;;;;;;-4.13;75.18;98852.00;2083081;28;20206;-63
2023/12/03 07:46:35;;;;;;;14.30;8.70;;;;;;;-4.13;75.18;98852.00;2081982;28;20208;-64
2023/12/03 07:47:37;;;;;;;12.18;7.22;;;;;;;-4.13;75.18;98852.00;2081249;28;20210;-64
2023/12/03 07:48:38;;;;;;;17.13;8.55;;;;;;;-146.81;100.00;56657.75;2080657;28;20279;-64
2023/12/03 07:49:40;;;;;;;13.10;8.20;;;;;;;-146.81;100.00;56657.75;2090748;28;20700;-64
2023/12/03 07:50:48;;;;;;;14.05;9.05;;;;;;;-146.81;100.00;56657.75;2095447;28;20671;-64
2023/12/03 07:51:50;;;;;;;17.52;9.18;;;;;;;-146.81;100.00;56657.75;2081907;28;20613;-62
2023/12/03 07:52:52;;;;;;;13.02;8.50;;;;;;;-146.81;100.00;56657.75;2079462;28;20284;-62
2023/12/03 07:53:53;;;;;;;15.85;9.32;;;;;;;-146.81;100.00;56657.75;2077797;28;20221;-63
2023/12/03 07:54:55;;;;;;;15.13;8.30;;;;;;;-146.81;100.00;56657.75;2079026;28;20200;-63
2023/12/03 07:55:56;;;;;;;19.13;12.43;;;;;;;-146.81;100.00;56657.75;2080392;28;20254;-63
2023/12/03 07:56:58;;;;;;;16.35;10.98;;;;;;;-146.81;100.00;56657.75;2082028;28;20612;-63
2023/12/03 07:58:02;;;;;;;15.05;9.75;;;;;;;-146.81;100.00;56657.75;2080952;28;20580;-63
2023/12/03 07:59:04;;;;;;;16.13;11.10;;;;;;;-146.81;100.00;56657.75;2079411;28;20213;-63
2023/12/03 08:00:06;;;;;;;21.70;12.73;;;;;;;-146.81;100.00;56657.75;2085795;28;20204;-64
2023/12/03 08:01:08;;;;;;;18.88;11.15;;;;;;;-146.81;100.00;56657.75;2085393;28;20207;-65
2023/12/03 08:02:09;;;;;;;19.95;12.45;;;;;;;-146.81;100.00;56657.75;2083668;28;20648;-64
2023/12/03 08:03:11;;;;;;;18.45;10.65;;;;;;;-146.81;100.00;56657.75;2081966;28;20197;-65
2023/12/03 08:04:13;;;;;;;20.20;11.57;;;;;;;-146.81;100.00;56657.75;2080874;28;20221;-64
2023/12/03 08:05:14;;;;;;;20.50;12.07;;;;;;;-146.81;100.00;56657.75;2081896;28;20223;-64
2023/12/03 08:06:16;;;;;;;26.88;11.52;;;;;;;-146.81;100.00;56657.75;2080306;28;20198;-65
2023/12/03 08:07:18;;;;;;;18.60;11.15;;;;;;;-146.81;100.00;56657.75;2089868;28;20227;-64
2023/12/03 08:08:19;;;;;;;17.70;10.75;;;;;;;-146.81;100.00;56657.75;2081596;28;20198;-64
2023/12/03 08:09:21;;;;;;;17.65;12.07;;;;;;;-146.81;100.00;56657.75;2074743;28;20251;-63
2023/12/03 08:10:22;;;;;;;18.98;10.63;;;;;;;-146.81;100.00;56657.75;2081795;28;20282;-63
2023/12/03 08:11:24;;;;;;;18.42;11.35;;;;;;;-146.81;100.00;56657.75;2081202;28;20596;-63
2023/12/03 08:12:25;;;;;;;17.40;11.05;;;;;;;-146.81;100.00;56657.75;2079978;28;20340;-63
2023/12/03 08:13:27;;;;;;;18.33;11.30;;;;;;;-146.81;100.00;56657.75;2077836;28;20236;-63
2023/12/03 08:14:28;;;;;;;21.65;12.27;;;;;;;-146.81;100.00;56657.75;2081516;28;20227;-63
2023/12/03 08:15:30;;;;;;;20.40;11.93;;;;;;;-146.81;100.00;56657.75;2078072;28;20262;-64
2023/12/03 08:16:31;;;;;;;21.80;12.63;;;;;;;-146.81;100.00;56657.75;2080356;28;20656;-64
2023/12/03 08:17:33;;;;;;;22.55;12.98;;;;;;;;;;2080466;28;20302;-63
2023/12/03 08:18:34;;;;;;;26.63;12.07;;;;;;;-1.09;58.30;98858.31;2079616;28;20284;-64
2023/12/03 08:19:36;;;;;;;17.17;12.38;;;;;;;-0.95;57.99;98872.38;2080114;28;20604;-66
2023/12/03 08:20:37;;;;;;;18.52;11.10;;;;;;;-0.70;57.79;98878.63;2081942;28;20197;-66
2023/12/03 08:21:39;;;;;;;18.65;11.00;;;;;;;-0.76;56.96;98856.78;2081096;28;20331;-66
2023/12/03 08:22:40;;;;;;;17.73;11.27;;;;;;;-0.11;56.28;98878.00;2097297;28;20247;-66
2023/12/03 08:23:42;;;;;;;17.48;11.25;;;;;;;0.20;55.98;98872.81;2097222;28;20231;-66
2023/12/03 08:24:43;;;;;;;17.05;10.45;;;;;;;0.73;54.21;98844.91;2081505;28;20695;-66
2023/12/03 08:25:48;;;;;;;18.38;11.57;;;;;;;0.23;53.77;98878.03;2083697;28;20204;-66
2023/12/03 08:26:50;;;;;;;15.73;9.85;;;;;;;-0.34;55.24;98884.00;2080782;28;20808;-68
2023/12/03 08:27:51;;;;;;;16.10;10.15;;;;;;;0.89;54.03;98885.06;2081848;28;20198;-68
2023/12/03 08:28:53;;;;;;;20.25;11.65;;;;;;;0.22;54.54;98884.19;2079038;28;20263;-67
2023/12/03 08:30:04;;;;;;;19.00;10.95;;;;;;;-0.11;55.12;98863.16;2078046;28;20624;-67
2023/12/03 08:31:06;;;;;;;19.27;11.35;;;;;;;-0.09;55.52;98878.84;2079540;28;20249;-68
2023/12/03 08:32:07;;;;;;;18.65;11.63;;;;;;;-0.80;57.06;98878.53;2090655;28;20832;-68
2023/12/03 08:33:09;;;;;;;19.25;12.02;;;;;;;-0.12;56.13;98881.47;2090720;28;20238;-68
2023/12/03 08:34:11;;;;;;;23.08;13.48;;;;;;;0.46;55.17;98880.72;2094806;28;20226;-68
2023/12/03 08:35:12;;;;;;;23.00;14.23;;;;;;;0.50;54.11;98871.97;2096857;28;20843;-68
2023/12/03 08:36:18;;;;;;;20.88;12.60;;;;;;;-0.40;55.85;98870.91;2081019;28;20316;-67
2023/12/03 08:37:20;;;;;;;22.40;13.13;;;;;;;-0.44;57.93;98870.00;2081744;28;20196;-67
2023/12/03 08:38:21;;;;;;;24.05;13.68;;;;;;;0.77;56.54;98872.84;2080039;28;20266;-67
2023/12/03 08:39:23;;;;;;;25.63;12.95;;;;;;;1.62;54.75;98875.28;2079926;28;20259;-67
2023/12/03 08:40:24;;;;;;;18.25;11.35;;;;;;;1.98;53.40;98865.50;2081006;28;20692;-67
2023/12/03 08:41:26;;;;;;;22.10;13.10;;;;;;;2.40;52.38;98873.09;2082707;28;20230;-67
2023/12/03 08:42:27;;;;;;;24.52;12.80;;;;;;;2.65;52.24;98873.78;2077906;28;20208;-67
2023/12/03 08:43:29;;;;;;;19.00;12.57;;;;;;;3.00;51.51;98874.38;2077810;28;20194;-67
2023/12/03 08:44:32;;;;;;;21.27;12.07;;;;;;;2.72;51.88;98872.00;2076605;28;20208;-67
2023/12/03 08:45:34;;;;;;;22.80;12.85;;;;;;;2.88;52.14;98876.22;2068393;28;20197;-67
2023/12/03 08:46:35;;;;;;;23.50;13.55;;;;;;;2.82;52.12;98881.53;2077926;28;20219;-67
2023/12/03 08:47:37;;;;;;;18.85;12.80;;;;;;;2.63;52.38;98879.94;2075317;28;20657;-67
2023/12/03 08:48:38;;;;;;;19.10;12.00;;;;;;;2.61;53.12;98872.91;2068789;28;20660;-66
2023/12/03 08:49:40;;;;;;;17.75;11.55;;;;;;;2.82;51.84;98870.13;2075194;28;20205;-65
2023/12/03 08:50:41;;;;;;;18.20;11.55;;;;;;;3.35;51.34;98879.28;2077062;28;20197;-65
2023/12/03 08:51:43;;;;;;;18.30;11.48;;;;;;;-146.81;100.00;56657.75;2075406;28;20770;-65
2023/12/03 08:52:45;;;;;;;18.95;12.65;;;;;;;-146.81;100.00;56657.75;2075638;28;20202;-65
2023/12/03 08:53:47;;;;;;;16.50;11.45;;;;;;;-146.81;100.00;56657.75;2075790;28;20229;-65
2023/12/03 08:54:49;;;;;;;20.10;12.50;;;;;;;-146.81;100.00;56657.75;2076011;28;20598;-65
2023/12/03 08:55:50;;;;;;;16.60;11.10;;;;;;;-146.81;100.00;56657.75;2072484;28;20236;-65
2023/12/03 08:56:52;;;;;;;20.83;12.20;;;;;;;-146.81;100.00;56657.75;2075586;28;20247;-65
2023/12/03 08:57:53;;;;;;;19.33;13.30;;;;;;;-146.81;100.00;56657.75;2072638;28;20209;-65
2023/12/03 08:58:55;;;;;;;17.55;12.50;;;;;;;-146.81;100.00;56657.75;2072099;28;20304;-65
2023/12/03 08:59:56;;;;;;;20.00;12.27;;;;;;;-146.81;100.00;56657.75;2075285;28;20232;-65
2023/12/03 09:00:58;;;;;;;16.30;11.65;;;;;;;-146.81;100.00;56657.75;2072407;28;20213;-65
2023/12/03 09:01:59;;;;;;;20.23;11.57;;;;;;;-146.81;100.00;56657.75;2073133;28;20201;-65
2023/12/03 09:03:01;;;;;;;16.25;11.10;;;;;;;-146.81;100.00;56657.75;2075940;28;20201;-65
2023/12/03 09:04:02;;;;;;;17.15;12.18;;;;;;;-146.81;100.00;56657.75;2074520;28;20252;-65
2023/12/03 09:05:05;;;;;;;18.90;12.25;;;;;;;-146.81;100.00;56657.75;2076748;28;20693;-66
2023/12/03 09:06:07;;;;;;;17.05;10.98;;;;;;;-146.81;100.00;56657.75;2076362;28;20231;-65
2023/12/03 09:07:09;;;;;;;19.98;12.35;;;;;;;-146.81;100.00;56657.75;2074679;28;20201;-64
2023/12/03 09:08:10;;;;;;;15.82;10.75;;;;;;;-146.81;100.00;56657.75;2074923;28;20201;-64
2023/12/03 09:09:12;;;;;;;17.08;11.50;;;;;;;-146.81;100.00;56657.75;2075235;28;20240;-64
2023/12/03 09:10:13;;;;;;;17.83;11.77;;;;;;;-146.81;100.00;56657.75;2073816;28;20568;-64
2023/12/03 09:11:15;;;;;;;14.98;9.52;;;;;;;-146.81;100.00;56657.75;2074684;28;20210;-64
2023/12/03 09:12:17;;;;;;;17.00;10.55;;;;;;;-146.81;100.00;56657.75;2075230;28;20201;-65
2023/12/03 09:13:19;;;;;;;20.95;12.30;;;;;;;-146.81;100.00;56657.75;2072223;28;20252;-65
2023/12/03 09:14:20;;;;;;;21.23;12.52;;;;;;;-146.81;100.00;56657.75;2072890;28;20225;-65
2023/12/03 09:15:22;;;;;;;16.52;10.52;;;;;;;-146.81;100.00;56657.75;2077357;28;20280;-65
2023/12/03 09:16:23;;;;;;;15.80;10.43;;;;;;;-146.81;100.00;56657.75;2075956;28;20255;-65
2023/12/03 09:17:28;;;;;;;13.90;9.02;;;;;;;-146.81;100.00;56657.75;2076772;28;20739;-65
2023/12/03 09:18:34;;;;;;;17.13;10.27;;;;;;;-146.81;100.00;56657.75;2076427;28;20288;-70
2023/12/03 09:19:35;;;;;;;16.40;10.50;;;;;;;-146.81;100.00;56657.75;2076178;28;20197;-65
2023/12/03 09:20:37;;;;;;;15.13;10.50;;;;;;;-146.81;100.00;56657.75;2075159;28;20337;-65
2023/12/03 09:21:42;;;;;;;15.68;10.15;;;;;;;-146.81;100.00;56657.75;2077267;28;20697;-65
2023/12/03 09:22:44;;;;;;;16.48;9.80;;;;;;;-146.81;100.00;56657.75;2075880;28;20194;-65
2023/12/03 09:23:47;;;;;;;13.45;8.63;;;;;;;-146.81;100.00;56657.75;2076617;28;20325;-64
2023/12/03 09:24:48;;;;;;;11.68;8.02;;;;;;;-146.81;100.00;56657.75;2076403;28;20233;-64
2023/12/03 09:25:50;;;;;;;12.57;9.35;;;;;;;-146.81;100.00;56657.75;2074575;28;20581;-65
2023/12/03 09:26:51;;;;;;;12.50;9.35;;;;;;;-146.81;100.00;56657.75;2074706;28;20198;-65
2023/12/03 09:27:53;;;;;;;15.02;10.20;;;;;;;-146.81;100.00;56657.75;2076541;28;20205;-65
2023/12/03 09:28:54;;;;;;;15.23;9.68;;;;;;;-146.81;100.00;56657.75;2075543;28;20586;-65
2023/12/03 09:29:56;;;;;;;13.20;9.70;;;;;;;-146.81;100.00;56657.75;2074424;28;20837;-65
2023/12/03 09:30:58;;;;;;;14.80;8.65;;;;;;;-146.81;100.00;56657.75;2076780;28;20657;-65
2023/12/03 09:32:00;;;;;;;14.23;9.73;;;;;;;-146.81;100.00;56657.75;2074118;28;20248;-65
2023/12/03 09:33:01;;;;;;;11.10;8.25;;;;;;;-146.81;100.00;56657.75;2076680;28;20243;-66
2023/12/03 09:34:03;;;;;;;13.55;8.40;;;;;;;-146.81;100.00;56657.75;2071006;28;20585;-65
2023/12/03 09:35:05;;;;;;;14.20;9.82;;;;;;;-146.81;100.00;56657.75;2074246;28;20244;-65
2023/12/03 09:36:07;;;;;;;16.45;11.30;;;;;;;-146.81;100.00;56657.75;2075626;28;20278;-66
2023/12/03 09:37:09;;;;;;;25.60;16.73;;;;;;;-146.81;100.00;56657.75;2075352;28;20619;-66
2023/12/03 09:38:10;;;;;;;19.92;11.98;;;;;;;-146.81;100.00;56657.75;2074569;28;20205;-66
2023/12/03 09:39:12;;;;;;;16.75;10.50;;;;;;;-146.81;100.00;56657.75;2072071;28;20700;-65
2023/12/03 09:40:13;;;;;;;20.98;12.85;;;;;;;-146.81;100.00;56657.75;2072112;28;20223;-66
2023/12/03 09:41:19;;;;;;;22.90;12.05;;;;;;;-146.81;100.00;56657.75;2076878;28;20766;-66
2023/12/03 09:42:25;;;;;;;24.13;12.05;;;;;;;-146.81;100.00;56657.75;2076240;28;20232;-66
2023/12/03 09:43:30;;;;;;;19.15;13.13;;;;;;;-146.81;100.00;56657.75;2075459;28;20202;-66
2023/12/03 09:44:50;;;;;;;19.95;11.38;;;;;;;-146.81;100.00;56657.75;2074885;28;20205;-66
2023/12/03 09:45:55;;;;;;;19.35;9.93;;;;;;;-146.81;100.00;56657.75;2075378;28;20312;-66
2023/12/03 09:46:59;;;;;;;14.73;9.55;;;;;;;-146.81;100.00;56657.75;2072050;28;20217;-67
2023/12/03 09:48:03;;;;;;;17.60;11.48;;;;;;;-146.81;100.00;56657.75;2072683;28;20201;-65
2023/12/03 09:49:10;;;;;;;20.08;14.20;;;;;;;-146.81;100.00;56657.75;2076487;28;20216;-66
2023/12/03 09:50:12;;;;;;;14.80;10.48;;;;;;;-146.81;100.00;56657.75;2075874;28;20225;-66
2023/12/03 09:51:17;;;;;;;17.23;12.00;;;;;;;-146.81;100.00;56657.75;2076126;28;20672;-66
2023/12/03 09:52:21;;;;;;;20.25;14.00;;;;;;;-146.81;100.00;56657.75;2075177;28;20767;-64
2023/12/03 09:53:26;;;;;;;20.33;13.38;;;;;;;-146.81;100.00;56657.75;2074780;28;20205;-66
2023/12/03 09:54:28;;;;;;;25.50;15.00;;;;;;;-146.81;100.00;56657.75;2075388;28;20212;-66
2023/12/03 09:55:32;;;;;;;33.55;17.42;;;;;;;-146.81;100.00;56657.75;2076247;28;20193;-66
2023/12/03 09:56:34;;;;;;;29.25;17.30;;;;;;;-146.81;100.00;56657.75;2072555;28;20201;-66
2023/12/03 09:57:41;;;;;;;30.70;18.15;;;;;;;-146.81;100.00;56657.75;2075212;28;20247;-66
2023/12/03 09:58:45;;;;;;;26.50;16.70;;;;;;;-146.81;100.00;56657.75;2090402;28;20744;-65
2023/12/03 09:59:50;;;;;;;31.70;16.65;;;;;;;-146.81;100.00;56657.75;2091536;28;20577;-64
2023/12/03 10:00:53;;;;;;;24.98;15.38;;;;;;;-146.81;100.00;56657.75;2074777;28;20201;-64
2023/12/03 10:01:55;;;;;;;21.40;12.75;;;;;;;-146.81;100.00;56657.75;2076615;28;20557;-64
2023/12/03 10:02:57;;;;;;;22.25;14.63;;;;;;;-146.81;100.00;56657.75;2072100;28;20193;-63
2023/12/03 10:03:58;;;;;;;19.90;13.05;;;;;;;-146.81;100.00;56657.75;2072074;28;20315;-63
2023/12/03 10:05:00;;;;;;;18.73;12.25;;;;;;;-146.81;100.00;56657.75;2075434;28;20295;-63
2023/12/03 10:06:03;;;;;;;20.70;13.10;;;;;;;-146.81;100.00;56657.75;2076900;28;20859;-63
2023/12/03 10:07:07;;;;;;;21.35;12.40;;;;;;;-146.81;100.00;56657.75;2077415;28;20238;-63
2023/12/03 10:08:08;;;;;;;27.73;13.50;;;;;;;-146.81;100.00;56657.75;2075820;28;20646;-63
2023/12/03 10:09:13;;;;;;;23.55;13.35;;;;;;;-146.81;100.00;56657.75;2074067;28;20261;-63
2023/12/03 10:10:22;;;;;;;26.08;13.75;;;;;;;-146.81;100.00;56657.75;2074936;28;20197;-63
2023/12/03 10:11:27;;;;;;;23.55;13.50;;;;;;;-146.81;100.00;56657.75;2074131;28;20286;-63
2023/12/03 10:12:42;;;;;;;22.00;13.82;;;;;;;-146.81;100.00;56657.75;2076193;28;20215;-63
2023/12/03 10:13:44;;;;;;;19.30;12.82;;;;;;;-146.81;100.00;56657.75;2073384;28;20916;-63
2023/12/03 10:14:46;;;;;;;23.95;13.38;;;;;;;-146.81;100.00;56657.75;2075336;28;20288;-63
2023/12/03 10:15:48;;;;;;;23.00;13.60;;;;;;;-146.81;100.00;56657.75;2075348;28;20215;-63
2023/12/03 10:16:50;;;;;;;21.50;12.98;;;;;;;-146.81;100.00;56657.75;2075013;28;20250;-63
2023/12/03 10:17:52;;;;;;;18.48;11.52;;;;;;;-146.81;100.00;56657.75;2075275;28;20604;-64
2023/12/03 10:18:53;;;;;;;22.27;12.70;;;;;;;-146.81;100.00;56657.75;2075412;28;20603;-63
2023/12/03 10:20:18;;;;;;;30.42;16.80;;;;;;;-146.81;100.00;56657.75;2075686;28;20675;-63
2023/12/03 10:21:19;;;;;;;26.40;15.88;;;;;;;-146.81;100.00;56657.75;2075545;28;20297;-63
2023/12/03 10:22:31;;;;;;;33.13;17.17;;;;;;;-146.81;100.00;56657.75;2076214;28;20201;-63
2023/12/03 10:23:35;;;;;;;36.70;19.40;;;;;;;-146.81;100.00;56657.75;2074488;28;20286;-63
2023/12/03 10:24:49;;;;;;;58.58;26.13;;;;;;;-146.81;100.00;56657.75;2079161;28;20722;-63
2023/12/03 10:25:51;;;;;;;53.78;21.38;;;;;;;-146.81;100.00;56657.75;2078439;28;20311;-63
2023/12/03 10:26:54;;;;;;;39.80;18.15;;;;;;;-146.81;100.00;56657.75;2075456;28;20230;-63
2023/12/03 10:27:57;;;;;;;45.25;21.65;;;;;;;-146.81;100.00;56657.75;2071730;28;20592;-62
2023/12/03 10:29:00;;;;;;;40.08;19.40;;;;;;;-146.81;100.00;56657.75;2072676;28;20225;-63
2023/12/03 10:30:01;;;;;;;32.63;17.98;;;;;;;-146.81;100.00;56657.75;2075016;28;20448;-62
2023/12/03 10:31:03;;;;;;;35.08;18.85;;;;;;;-146.81;100.00;56657.75;2075700;28;20507;-63
2023/12/03 10:32:06;;;;;;;36.03;17.70;;;;;;;-146.81;100.00;56657.75;2076510;28;20285;-63
2023/12/03 10:33:11;;;;;;;33.28;16.92;;;;;;;-146.81;100.00;56657.75;2075660;28;20353;-63
2023/12/03 10:34:13;;;;;;;40.40;19.70;;;;;;;-146.81;100.00;56657.75;2078018;28;20309;-63
2023/12/03 10:35:14;;;;;;;37.63;18.88;;;;;;;-146.81;100.00;56657.75;2078977;28;20798;-62
2023/12/03 10:36:18;;;;;;;37.30;19.23;;;;;;;-146.81;100.00;56657.75;2074081;28;20200;-62
2023/12/03 10:37:19;;;;;;;30.63;15.65;;;;;;;-146.81;100.00;56657.75;2074250;28;20667;-63
2023/12/03 10:38:21;;;;;;;30.58;15.57;;;;;;;-146.81;100.00;56657.75;2072954;28;20280;-63
2023/12/03 10:39:22;;;;;;;24.17;13.40;;;;;;;-146.81;100.00;56657.75;2074826;28;20283;-63
2023/12/03 10:40:25;;;;;;;20.45;12.50;;;;;;;-146.81;100.00;56657.75;2076026;28;20201;-62
2023/12/03 10:41:26;;;;;;;20.67;11.23;;;;;;;-146.81;100.00;56657.75;2076254;28;20241;-63
2023/12/03 10:42:29;;;;;;;18.33;10.85;;;;;;;-146.81;100.00;56657.75;2074943;28;20722;-63
2023/12/03 10:43:34;;;;;;;18.80;10.93;;;;;;;-146.81;100.00;56657.75;2074300;28;20220;-63
2023/12/03 10:44:38;;;;;;;18.45;10.63;;;;;;;-146.81;100.00;56657.75;2072373;28;20196;-63
2023/12/03 10:45:39;;;;;;;20.27;12.13;;;;;;;-146.81;100.00;56657.75;2071473;28;20538;-62
2023/12/03 10:46:41;;;;;;;18.35;10.30;;;;;;;-146.81;100.00;56657.75;2090407;28;20713;-63
2023/12/03 10:47:43;;;;;;;16.40;10.80;;;;;;;-146.81;100.00;56657.75;2082176;28;20203;-63
2023/12/03 10:48:45;;;;;;;19.70;11.00;;;;;;;-146.81;100.00;56657.75;2066699;28;20251;-63
2023/12/03 10:49:49;;;;;;;18.35;10.55;;;;;;;-146.81;100.00;56657.75;2070541;28;20193;-65
2023/12/03 10:50:54;;;;;;;17.05;10.20;;;;;;;-146.81;100.00;56657.75;2078357;28;20210;-65
2023/12/03 10:51:56;;;;;;;17.05;10.30;;;;;;;-146.81;100.00;56657.75;2073560;28;20255;-65
2023/12/03 10:53:01;;;;;;;15.07;9.27;;;;;;;-146.81;100.00;56657.75;2071816;28;20207;-65
2023/12/03 10:54:03;;;;;;;18.25;10.25;;;;;;;-146.81;100.00;56657.75;2071463;28;20218;-65
2023/12/03 10:55:06;;;;;;;19.27;11.13;;;;;;;-146.81;100.00;56657.75;2074787;28;20233;-65
2023/12/03 10:56:08;;;;;;;15.23;9.90;;;;;;;-146.81;100.00;56657.75;2075233;28;20197;-65
2023/12/03 10:57:10;;;;;;;16.58;9.68;;;;;;;-146.81;100.00;56657.75;2071475;28;20233;-65
2023/12/03 10:58:19;;;;;;;15.73;10.23;;;;;;;-146.81;100.00;56657.75;2072556;28;20312;-65
2023/12/03 10:59:29;;;;;;;16.38;10.07;;;;;;;-146.81;100.00;56657.75;2072916;28;20319;-65
2023/12/03 11:00:51;;;;;;;17.05;10.30;;;;;;;-146.81;100.00;56657.75;2075642;28;20396;-65
2023/12/03 11:01:57;;;;;;;17.30;10.35;;;;;;;-146.81;100.00;56657.75;2074035;28;20228;-62
2023/12/03 11:03:04;;;;;;;16.90;10.38;;;;;;;-146.81;100.00;56657.75;2075656;28;20205;-62
2023/12/03 11:04:16;;;;;;;13.23;8.25;;;;;;;-146.81;100.00;56657.75;2068753;28;20318;-63
2023/12/03 11:05:38;;;;;;;17.42;10.15;;;;;;;-146.81;100.00;56657.75;2073970;28;20229;-62
2023/12/03 11:06:40;;;;;;;14.10;8.95;;;;;;;-146.81;100.00;56657.75;2075770;28;20202;-62
2023/12/03 11:07:42;;;;;;;14.35;9.43;;;;;;;-146.81;100.00;56657.75;2075415;28;20210;-66
2023/12/03 11:08:46;;;;;;;19.00;11.73;;;;;;;-146.81;100.00;56657.75;2071199;28;20201;-67
2023/12/03 11:09:49;;;;;;;16.60;9.90;;;;;;;-146.81;100.00;56657.75;2072440;28;20194;-65
2023/12/03 11:10:53;;;;;;;17.02;10.02;;;;;;;-146.81;100.00;56657.75;2073677;28;20198;-63
2023/12/03 11:11:55;;;;;;;23.00;13.00;;;;;;;-146.81;100.00;56657.75;2074233;28;20202;-61
2023/12/03 11:12:58;;;;;;;15.18;9.02;;;;;;;-146.81;100.00;56657.75;2073800;28;20700;-61
2023/12/03 11:13:59;;;;;;;15.05;8.55;;;;;;;-146.81;100.00;56657.75;2069682;28;20701;-61
2023/12/03 11:15:01;;;;;;;13.93;8.93;;;;;;;-146.81;100.00;56657.75;2074175;28;20678;-62
2023/12/03 11:16:05;;;;;;;14.20;8.25;;;;;;;-146.81;100.00;56657.75;2075397;28;20307;-62
2023/12/03 11:17:30;;;;;;;14.63;8.85;;;;;;;-146.81;100.00;56657.75;2075658;28;20198;-61
2023/12/03 11:18:40;;;;;;;14.95;8.70;;;;;;;-146.81;100.00;56657.75;2065855;28;20207;-62
2023/12/03 11:19:45;;;;;;;13.98;8.80;;;;;;;-146.81;100.00;56657.75;2074816;28;20193;-62
2023/12/03 11:21:07;;;;;;;15.75;8.75;;;;;;;-146.81;100.00;56657.75;2075235;28;20193;-62
2023/12/03 11:22:34;;;;;;;17.13;9.63;;;;;;;-146.81;100.00;56657.75;2075035;28;20555;-62
2023/12/03 11:23:38;;;;;;;17.27;10.18;;;;;;;-146.81;100.00;56657.75;2074535;28;20705;-62
2023/12/03 11:24:53;;;;;;;18.80;10.43;;;;;;;-146.81;100.00;56657.75;2073465;28;20236;-62
2023/12/03 11:26:07;;;;;;;15.48;8.30;;;;;;;-146.81;100.00;56657.75;2074108;28;20205;-61
2023/12/03 11:27:09;;;;;;;22.50;10.98;;;;;;;-146.81;100.00;56657.75;2090906;28;20600;-61
2023/12/03 11:28:11;;;;;;;14.32;9.70;;;;;;;-146.81;100.00;56657.75;2090146;28;20200;-62
2023/12/03 11:29:13;;;;;;;17.02;10.07;;;;;;;-146.81;100.00;56657.75;2055379;28;20225;-62
2023/12/03 11:30:15;;;;;;;14.77;9.02;;;;;;;-146.81;100.00;56657.75;2072228;28;20220;-62
2023/12/03 11:31:16;;;;;;;15.70;9.43;;;;;;;-146.81;100.00;56657.75;2073404;28;20232;-61
2023/12/03 11:32:19;;;;;;;14.60;9.02;;;;;;;-146.81;100.00;56657.75;2071028;28;20288;-61
2023/12/03 11:33:30;;;;;;;15.88;9.38;;;;;;;-146.81;100.00;56657.75;2073825;28;20204;-62
2023/12/03 11:34:32;;;;;;;14.32;8.85;;;;;;;-146.81;100.00;56657.75;2074120;28;20300;-62
2023/12/03 11:35:34;;;;;;;17.17;10.00;;;;;;;-146.81;100.00;56657.75;2074892;28;20605;-62
2023/12/03 11:36:45;;;;;;;18.52;9.93;;;;;;;-146.81;100.00;56657.75;2073721;28;20197;-62
2023/12/03 11:37:46;;;;;;;14.63;9.25;;;;;;;-146.81;100.00;56657.75;2078590;28;20690;-62
2023/12/03 11:38:48;;;;;;;12.27;8.32;;;;;;;-146.81;100.00;56657.75;2069136;28;20895;-62
2023/12/03 11:39:49;;;;;;;14.45;8.93;;;;;;;-146.81;100.00;56657.75;2073820;28;20632;-62
2023/12/03 11:40:51;;;;;;;15.27;8.90;;;;;;;-146.81;100.00;56657.75;2073969;28;20263;-62
2023/12/03 11:42:03;;;;;;;14.65;8.88;;;;;;;-146.81;100.00;56657.75;2075125;28;20236;-62
2023/12/03 11:43:25;;;;;;;12.98;7.43;;;;;;;-146.81;100.00;56657.75;2074830;28;20757;-62
2023/12/03 11:44:27;;;;;;;15.52;8.82;;;;;;;-146.81;100.00;56657.75;2072292;28;20714;-62
2023/12/03 11:45:29;;;;;;;12.60;7.85;;;;;;;-146.81;100.00;56657.75;2075085;28;20202;-62
2023/12/03 11:46:44;;;;;;;14.18;8.40;;;;;;;-146.81;100.00;56657.75;2074538;28;20208;-62
2023/12/03 11:48:09;;;;;;;14.30;9.02;;;;;;;-146.81;100.00;56657.75;2075051;28;20208;-61
2023/12/03 11:49:11;;;;;;;13.45;8.32;;;;;;;-146.81;100.00;56657.75;2075591;28;20213;-62
2023/12/03 11:50:14;;;;;;;15.63;9.07;;;;;;;-146.81;100.00;56657.75;2074916;28;20254;-62
2023/12/03 11:51:35;;;;;;;18.55;9.32;;;;;;;-146.81;100.00;56657.75;2073397;28;20669;-67
2023/12/03 11:52:38;;;;;;;13.75;8.93;;;;;;;-146.81;100.00;56657.75;2072925;28;20197;-67
2023/12/03 11:53:56;;;;;;;14.13;9.10;;;;;;;-146.81;100.00;56657.75;2072087;28;20197;-67
2023/12/03 11:55:17;;;;;;;14.95;8.48;;;;;;;-146.81;100.00;56657.75;2074414;28;20210;-67
2023/12/03 11:56:21;;;;;;;14.52;8.80;;;;;;;-146.81;100.00;56657.75;2072805;28;20197;-67
2023/12/03 11:57:25;;;;;;;13.57;8.00;;;;;;;-146.81;100.00;56657.75;2071588;28;20239;-66
2023/12/03 11:58:26;;;;;;;15.52;8.35;;;;;;;-146.81;100.00;56657.75;2088378;28;20683;-66
2023/12/03 11:59:28;;;;;;;17.77;9.50;;;;;;;-146.81;100.00;56657.75;2088920;28;20258;-66
2023/12/03 12:00:30;;;;;;;15.77;8.80;;;;;;;-146.81;100.00;56657.75;2076355;28;20232;-66
2023/12/03 12:01:33;;;;;;;16.50;9.10;;;;;;;-146.81;100.00;56657.75;2077014;28;20224;-66
2023/12/03 12:02:35;;;;;;;14.80;8.45;;;;;;;-146.81;100.00;56657.75;2075884;28;20663;-66
2023/12/03 12:03:36;;;;;;;14.73;10.15;;;;;;;-146.81;100.00;56657.75;2073848;28;20622;-66
2023/12/03 12:04:38;;;;;;;15.63;8.85;;;;;;;-146.81;100.00;56657.75;2075284;28;20627;-67
2023/12/03 12:05:47;;;;;;;14.75;8.35;;;;;;;-146.81;100.00;56657.75;2072920;28;20197;-66
2023/12/03 12:06:50;;;;;;;16.48;8.82;;;;;;;-146.81;100.00;56657.75;2074019;28;20649;-66
2023/12/03 12:07:57;;;;;;;13.90;9.35;;;;;;;-146.81;100.00;56657.75;2074539;28;20193;-66
2023/12/03 12:08:58;;;;;;;90.47;43.38;;;;;;;-146.81;100.00;56657.75;2074188;28;20228;-67
2023/12/03 12:10:00;;;;;;;19.42;10.55;;;;;;;-146.81;100.00;56657.75;2075488;28;20202;-68
2023/12/03 12:11:01;;;;;;;16.08;8.98;;;;;;;-146.81;100.00;56657.75;2073756;28;20568;-68
2023/12/03 12:12:03;;;;;;;18.10;9.60;;;;;;;-146.81;100.00;56657.75;2076330;28;20202;-68
2023/12/03 12:13:06;;;;;;;17.92;9.32;;;;;;;-146.81;100.00;56657.75;2074835;28;20212;-67
2023/12/03 12:14:07;;;;;;;16.35;10.48;;;;;;;-146.81;100.00;56657.75;2070440;28;20267;-68
2023/12/03 12:15:12;;;;;;;16.95;9.90;;;;;;;-146.81;100.00;56657.75;2074480;28;20593;-67
2023/12/03 12:16:13;;;;;;;17.70;10.25;;;;;;;-146.81;100.00;56657.75;2074501;28;20216;-67
2023/12/03 12:17:15;;;;;;;17.65;10.35;;;;;;;-146.81;100.00;56657.75;2075686;28;20202;-67
2023/12/03 12:18:19;;;;;;;15.65;9.38;;;;;;;-146.81;100.00;56657.75;2072969;28;20726;-67
2023/12/03 12:19:21;;;;;;;15.27;9.18;;;;;;;-146.81;100.00;56657.75;2081074;28;20226;-67